createdAt,value
2018-10-21T00:02:09.429Z,20.13
2018-10-21T00:04:39.153Z,18.93
2018-10-21T00:07:09.432Z,21.13
2018-10-21T00:09:39.182Z,21.43
2018-10-21T00:12:08.949Z,20.90
2018-10-21T00:14:38.963Z,21.47
2018-10-21T00:17:08.637Z,20.60
2018-10-21T00:19:38.416Z,21.33
2018-10-21T00:22:08.207Z,22.30
2018-10-21T00:24:37.985Z,21.03
2018-10-21T00:27:08.070Z,21.70
2018-10-21T00:29:37.840Z,21.80
2018-10-21T00:32:07.664Z,22.20
2018-10-21T00:34:37.434Z,22.37
2018-10-21T00:37:07.516Z,21.83
2018-10-21T00:39:37.402Z,21.60
2018-10-21T00:42:07.365Z,23.70
2018-10-21T00:44:37.142Z,22.77
2018-10-21T00:47:06.955Z,22.87
2018-10-21T00:49:36.792Z,22.97
2018-10-21T00:52:07.232Z,23.07
2018-10-21T00:54:37.026Z,21.77
2018-10-21T00:57:07.067Z,24.30
2018-10-21T00:59:36.850Z,23.53
2018-10-21T01:02:07.335Z,23.30
2018-10-21T01:04:37.074Z,23.17
2018-10-21T01:07:07.152Z,23.50
2018-10-21T01:09:37.036Z,23.93
2018-10-21T01:12:07.467Z,24.77
2018-10-21T01:14:37.215Z,24.33
2018-10-21T01:17:07.304Z,24.03
2018-10-21T01:19:37.120Z,24.03
2018-10-21T01:22:07.074Z,24.67
2018-10-21T01:24:36.752Z,24.50
2018-10-21T01:27:07.494Z,24.63
2018-10-21T01:29:37.136Z,23.77
2018-10-21T01:32:07.109Z,25.27
2018-10-21T01:34:36.867Z,23.83
2018-10-21T01:37:07.018Z,23.90
2018-10-21T01:40:47.104Z,24.40
2018-10-21T01:43:19.187Z,23.37
2018-10-21T01:45:48.903Z,24.63
2018-10-21T01:48:19.669Z,25.60
2018-10-21T01:50:49.407Z,24.97
2018-10-21T01:53:19.851Z,25.33
2018-10-21T01:55:49.721Z,24.73
2018-10-21T01:58:19.491Z,23.90
2018-10-21T02:00:49.226Z,24.27
2018-10-21T02:03:19.112Z,24.27
2018-10-21T02:05:49.136Z,24.00
2018-10-21T02:08:18.832Z,24.10
2018-10-21T02:10:48.493Z,22.70
2018-10-21T02:13:18.367Z,22.80
2018-10-21T02:15:48.161Z,22.87
2018-10-21T02:18:17.861Z,22.57
2018-10-21T02:20:47.578Z,23.70
2018-10-21T02:23:17.752Z,24.17
2018-10-21T02:25:47.463Z,23.03
2018-10-21T02:28:17.177Z,23.50
2018-10-21T02:30:47.083Z,23.67
2018-10-21T02:33:16.894Z,22.23
2018-10-21T02:35:46.550Z,23.23
2018-10-21T02:38:16.255Z,22.20
2018-10-21T02:41:31.283Z,23.50
2018-10-21T02:44:01.152Z,22.47
2018-10-21T02:46:31.206Z,23.60
2018-10-21T02:49:01.613Z,24.10
2018-10-21T02:51:31.319Z,22.37
2018-10-21T02:54:00.990Z,24.53
2018-10-21T02:56:31.061Z,22.53
2018-10-21T02:59:00.799Z,23.70
2018-10-21T03:01:30.593Z,24.50
2018-10-21T03:04:00.246Z,24.67
2018-10-21T03:06:30.333Z,23.63
2018-10-21T03:09:00.158Z,24.43
2018-10-21T03:11:30.147Z,24.47
2018-10-21T03:13:59.868Z,24.07
2018-10-21T03:16:30.077Z,24.37
2018-10-21T03:18:59.822Z,25.63
2018-10-21T03:21:29.926Z,23.93
2018-10-21T03:23:59.626Z,25.00
2018-10-21T03:26:29.530Z,23.80
2018-10-21T03:28:59.882Z,24.07
2018-10-21T03:31:29.923Z,25.33
2018-10-21T03:33:59.793Z,24.80
2018-10-21T03:36:29.350Z,25.10
2018-10-21T03:38:59.268Z,24.13
2018-10-21T03:41:29.112Z,24.87
2018-10-21T03:43:59.880Z,23.90
2018-10-21T03:46:29.593Z,24.13
2018-10-21T03:48:59.377Z,24.00
2018-10-21T03:51:29.094Z,25.20
2018-10-21T03:53:58.856Z,23.63
2018-10-21T03:56:29.225Z,24.43
2018-10-21T03:58:59.056Z,25.27
2018-10-21T04:01:28.831Z,23.83
2018-10-21T04:03:58.583Z,24.97
2018-10-21T04:06:28.345Z,24.63
2018-10-21T04:08:58.051Z,24.37
2018-10-21T04:11:27.792Z,24.80
2018-10-21T04:13:57.556Z,24.00
2018-10-21T04:16:27.288Z,24.97
2018-10-21T04:18:56.981Z,24.23
2018-10-21T04:21:26.713Z,24.50
2018-10-21T04:23:56.537Z,24.80
2018-10-21T04:26:26.326Z,25.27
2018-10-21T04:28:56.206Z,24.70
2018-10-21T04:31:25.972Z,25.87
2018-10-21T04:33:55.765Z,24.70
2018-10-21T04:36:27.823Z,24.67
2018-10-21T04:40:15.744Z,24.20
2018-10-21T04:42:45.990Z,23.97
2018-10-21T04:45:18.261Z,24.60
2018-10-21T04:47:48.102Z,25.77
2018-10-21T04:50:18.166Z,26.57
2018-10-21T04:52:47.871Z,27.43
2018-10-21T04:55:17.857Z,29.07
2018-10-21T04:57:48.171Z,29.57
2018-10-21T05:00:19.771Z,29.67
2018-10-21T05:02:49.575Z,27.50
2018-10-21T05:05:19.245Z,28.23
2018-10-21T05:07:49.016Z,29.97
2018-10-21T05:10:34.887Z,28.47
2018-10-21T05:13:05.397Z,28.60
2018-10-21T05:15:36.467Z,28.43
2018-10-21T05:18:06.927Z,30.30
2018-10-21T05:20:36.831Z,29.23
2018-10-21T05:23:06.691Z,29.67
2018-10-21T05:25:36.463Z,29.63
2018-10-21T05:28:06.243Z,31.50
2018-10-21T05:30:35.896Z,31.13
2018-10-21T05:33:05.877Z,33.23
2018-10-21T05:35:35.585Z,33.00
2018-10-21T05:38:05.320Z,33.70
2018-10-21T05:40:35.069Z,32.50
2018-10-21T05:43:04.820Z,29.70
2018-10-21T05:45:34.556Z,28.90
2018-10-21T05:48:04.169Z,27.30
2018-10-21T05:50:33.935Z,26.67
2018-10-21T05:53:03.676Z,27.00
2018-10-21T05:55:33.412Z,26.43
2018-10-21T05:58:03.266Z,30.27
2018-10-21T06:00:33.023Z,29.27
2018-10-21T06:03:02.764Z,28.63
2018-10-21T06:05:37.842Z,31.00
2018-10-21T06:08:07.875Z,30.77
2018-10-21T06:10:37.574Z,31.00
2018-10-21T06:13:07.418Z,29.57
2018-10-21T06:15:37.322Z,31.70
2018-10-21T06:18:09.715Z,30.80
2018-10-21T06:20:43.499Z,29.93
2018-10-21T06:23:13.248Z,29.77
2018-10-21T06:25:43.461Z,29.43
2018-10-21T06:28:13.338Z,30.93
2018-10-21T06:30:43.370Z,29.83
2018-10-21T06:33:13.082Z,29.40
2018-10-21T06:35:43.040Z,28.83
2018-10-21T06:38:12.733Z,26.47
2018-10-21T06:40:42.472Z,27.30
2018-10-21T06:43:12.242Z,28.90
2018-10-21T06:45:41.970Z,26.83
2018-10-21T06:48:11.738Z,27.87
2018-10-21T06:50:41.445Z,26.90
2018-10-21T06:53:11.277Z,26.10
2018-10-21T06:55:41.077Z,25.53
2018-10-21T06:58:10.875Z,26.27
2018-10-21T07:00:40.637Z,26.73
2018-10-21T07:03:10.320Z,27.63
2018-10-21T07:06:27.899Z,27.13
2018-10-21T07:08:59.925Z,26.17
2018-10-21T07:11:29.651Z,27.20
2018-10-21T07:13:59.395Z,28.03
2018-10-21T07:16:29.216Z,28.23
2018-10-21T07:18:58.916Z,28.37
2018-10-21T07:21:28.691Z,27.40
2018-10-21T07:23:58.458Z,25.40
2018-10-21T07:26:29.037Z,25.67
2018-10-21T07:28:58.825Z,26.97
2018-10-21T07:31:28.557Z,27.47
2018-10-21T07:33:58.308Z,27.20
2018-10-21T07:36:28.153Z,26.63
2018-10-21T07:38:57.918Z,26.77
2018-10-21T07:41:27.732Z,27.00
2018-10-21T07:43:57.537Z,26.33
2018-10-21T07:46:27.362Z,26.87
2018-10-21T07:48:57.177Z,26.37
2018-10-21T07:51:26.977Z,26.73
2018-10-21T07:53:56.802Z,24.77
2018-10-21T07:56:26.611Z,26.63
2018-10-21T07:58:56.352Z,25.97
2018-10-21T08:01:26.148Z,25.87
2018-10-21T08:03:55.860Z,25.00
2018-10-21T08:07:41.953Z,26.00
2018-10-21T08:10:11.937Z,25.30
2018-10-21T08:12:41.635Z,25.53
2018-10-21T08:15:11.580Z,24.70
2018-10-21T08:17:41.925Z,24.73
2018-10-21T08:20:11.731Z,25.50
2018-10-21T08:22:41.596Z,24.63
2018-10-21T08:25:11.387Z,24.77
2018-10-21T08:27:41.220Z,26.20
2018-10-21T08:30:10.967Z,24.80
2018-10-21T08:32:40.916Z,25.63
2018-10-21T08:35:10.716Z,24.83
2018-10-21T08:37:40.485Z,23.47
2018-10-21T08:40:10.382Z,24.07
2018-10-21T08:42:40.153Z,25.50
2018-10-21T08:45:10.404Z,24.70
2018-10-21T08:47:40.761Z,25.37
2018-10-21T08:50:10.996Z,22.80
2018-10-21T08:52:40.927Z,23.70
2018-10-21T08:55:11.611Z,24.43
2018-10-21T08:57:41.751Z,24.10
2018-10-21T09:00:16.560Z,24.87
2018-10-21T09:02:46.657Z,25.07
2018-10-21T09:05:18.760Z,24.43
2018-10-21T09:07:48.797Z,25.30
2018-10-21T09:10:19.018Z,24.00
2018-10-21T09:12:48.794Z,24.27
2018-10-21T09:15:19.317Z,24.37
2018-10-21T09:17:49.069Z,24.63
2018-10-21T09:20:19.587Z,23.87
2018-10-21T09:22:49.445Z,24.93
2018-10-21T09:25:19.230Z,24.03
2018-10-21T09:27:48.977Z,24.97
2018-10-21T09:30:18.765Z,25.10
2018-10-21T09:32:48.610Z,23.67
2018-10-21T09:35:19.275Z,24.50
2018-10-21T09:37:49.063Z,24.00
2018-10-21T09:40:20.254Z,24.40
2018-10-21T09:42:50.575Z,23.70
2018-10-21T09:45:21.303Z,24.67
2018-10-21T09:47:51.160Z,25.30
2018-10-21T09:50:20.931Z,23.50
2018-10-21T09:52:50.702Z,26.67
2018-10-21T09:55:21.947Z,24.90
2018-10-21T09:57:52.024Z,25.97
2018-10-21T10:00:27.004Z,23.47
2018-10-21T10:03:01.963Z,22.80
2018-10-21T10:05:31.877Z,25.00
2018-10-21T10:08:01.824Z,23.43
2018-10-21T10:10:31.891Z,23.17
2018-10-21T10:13:01.918Z,23.27
2018-10-21T10:15:31.732Z,23.57
2018-10-21T10:18:01.955Z,22.20
2018-10-21T10:20:31.740Z,23.47
2018-10-21T10:23:01.863Z,23.90
2018-10-21T10:25:31.541Z,23.27
2018-10-21T10:28:01.621Z,24.77
2018-10-21T10:30:31.459Z,24.67
2018-10-21T10:33:01.472Z,24.93
2018-10-21T10:35:31.166Z,23.23
2018-10-21T10:38:01.003Z,22.93
2018-10-21T10:40:30.778Z,24.27
2018-10-21T10:43:00.727Z,22.37
2018-10-21T10:45:30.624Z,24.50
2018-10-21T10:48:00.459Z,24.57
2018-10-21T10:50:30.228Z,25.03
2018-10-21T10:53:00.225Z,22.97
2018-10-21T10:55:35.289Z,23.03
2018-10-21T10:58:05.673Z,24.50
2018-10-21T11:00:35.458Z,23.27
2018-10-21T11:03:05.759Z,24.37
2018-10-21T11:05:35.695Z,22.17
2018-10-21T11:08:05.910Z,23.40
2018-10-21T11:10:35.723Z,23.27
2018-10-21T11:13:05.752Z,22.87
2018-10-21T11:15:35.888Z,21.83
2018-10-21T11:18:05.870Z,22.03
2018-10-21T11:20:35.712Z,21.93
2018-10-21T11:23:06.129Z,19.50
2018-10-21T11:25:35.905Z,20.97
2018-10-21T11:28:06.204Z,20.10
2018-10-21T11:30:36.032Z,19.50
2018-10-21T11:33:07.124Z,19.97
2018-10-21T11:35:36.891Z,20.27
2018-10-21T11:38:07.194Z,18.43
2018-10-21T11:40:37.114Z,19.60
2018-10-21T11:43:07.462Z,20.03
2018-10-21T11:45:37.251Z,20.23
2018-10-21T11:48:07.038Z,16.83
2018-10-21T11:50:36.918Z,16.53
2018-10-21T11:53:07.388Z,15.17
2018-10-21T11:55:39.993Z,14.03
2018-10-21T11:58:12.594Z,13.17
2018-10-21T12:00:43.199Z,12.27
2018-10-21T12:03:13.268Z,10.80
2018-10-21T12:05:43.813Z,11.10
2018-10-21T12:08:14.228Z,11.70
2018-10-21T12:10:44.096Z,13.20
2018-10-21T12:13:13.999Z,10.93
2018-10-21T12:15:43.810Z,12.90
2018-10-21T12:18:13.796Z,13.00
2018-10-21T12:20:43.692Z,15.77
2018-10-21T12:23:13.620Z,15.07
2018-10-21T12:25:43.368Z,15.30
2018-10-21T12:28:13.623Z,12.50
2018-10-21T12:30:43.400Z,14.17
2018-10-21T12:33:13.580Z,14.97
2018-10-21T12:35:43.389Z,13.47
2018-10-21T12:38:13.865Z,10.73
2018-10-21T12:40:43.758Z,11.47
2018-10-21T12:43:14.014Z,9.47
2018-10-21T12:45:43.827Z,11.80
2018-10-21T12:48:14.068Z,12.27
2018-10-21T12:50:43.893Z,12.73
2018-10-21T12:53:13.972Z,10.90
2018-10-21T12:55:47.827Z,10.60
2018-10-21T12:58:18.038Z,9.33
2018-10-21T13:00:47.917Z,9.90
2018-10-21T13:03:17.894Z,10.83
2018-10-21T13:05:47.779Z,10.23
2018-10-21T13:08:17.660Z,12.87
2018-10-21T13:10:47.468Z,12.13
2018-10-21T13:13:17.550Z,12.27
2018-10-21T13:15:47.341Z,12.30
2018-10-21T13:18:17.425Z,12.40
2018-10-21T13:20:47.377Z,13.00
2018-10-21T13:23:17.611Z,13.20
2018-10-21T13:25:47.432Z,13.70
2018-10-21T13:28:17.791Z,13.60
2018-10-21T13:30:47.553Z,12.60
2018-10-21T13:33:17.968Z,12.30
2018-10-21T13:35:47.885Z,11.73
2018-10-21T13:38:18.069Z,11.10
2018-10-21T13:40:48.017Z,11.83
2018-10-21T13:43:18.575Z,12.97
2018-10-21T13:45:48.419Z,11.83
2018-10-21T13:48:18.902Z,11.43
2018-10-21T13:50:49.228Z,11.07
2018-10-21T13:53:20.244Z,9.67
2018-10-21T13:55:50.067Z,11.63
2018-10-21T13:58:19.950Z,10.23
2018-10-21T14:00:49.888Z,11.33
2018-10-21T14:03:19.932Z,11.73
2018-10-21T14:05:49.896Z,11.17
2018-10-21T14:08:20.443Z,11.40
2018-10-21T14:10:50.225Z,11.50
2018-10-21T14:13:20.446Z,11.83
2018-10-21T14:15:50.347Z,11.07
2018-10-21T14:18:20.450Z,11.07
2018-10-21T14:20:50.277Z,11.33
2018-10-21T14:23:20.553Z,11.37
2018-10-21T14:25:50.326Z,10.90
2018-10-21T14:28:20.981Z,10.33
2018-10-21T14:30:50.884Z,10.90
2018-10-21T14:33:21.102Z,10.17
2018-10-21T14:35:50.883Z,11.00
2018-10-21T14:38:20.990Z,10.47
2018-10-21T14:40:50.821Z,9.37
2018-10-21T14:43:21.051Z,9.23
2018-10-21T14:45:50.892Z,10.60
2018-10-21T14:48:20.917Z,10.13
2018-10-21T14:50:50.776Z,9.87
2018-10-21T14:53:20.886Z,9.47
2018-10-21T14:55:50.652Z,9.30
2018-10-21T14:58:20.836Z,9.43
2018-10-21T15:00:50.573Z,9.10
2018-10-21T15:03:20.802Z,8.97
2018-10-21T15:05:50.662Z,9.77
2018-10-21T15:08:20.731Z,9.90
2018-10-21T15:10:50.616Z,9.60
2018-10-21T15:13:20.397Z,9.67
2018-10-21T15:15:50.450Z,10.07
2018-10-21T15:18:20.361Z,9.80
2018-10-21T15:20:50.133Z,10.20
2018-10-21T15:23:19.977Z,9.90
2018-10-21T15:25:49.837Z,94.10
2018-10-21T15:28:19.744Z,22.00
2018-10-21T15:30:49.508Z,13.10
2018-10-21T15:33:19.272Z,11.20
2018-10-21T15:35:49.096Z,10.00
2018-10-21T15:38:18.934Z,11.97
2018-10-21T15:40:48.895Z,10.57
2018-10-21T15:43:18.662Z,10.57
2018-10-21T15:45:48.738Z,11.37
2018-10-21T15:48:18.508Z,12.30
2018-10-21T15:50:48.312Z,10.63
2018-10-21T15:53:18.154Z,11.20
2018-10-21T15:55:48.063Z,11.10
2018-10-21T15:58:17.993Z,11.33
2018-10-21T16:00:48.451Z,11.30
2018-10-21T16:03:18.178Z,10.73
2018-10-21T16:05:48.040Z,10.90
2018-10-21T16:08:17.962Z,11.00
2018-10-21T16:10:47.802Z,10.53
2018-10-21T16:13:17.592Z,11.50
2018-10-21T16:15:47.453Z,10.63
2018-10-21T16:18:17.458Z,10.87
2018-10-21T16:20:47.458Z,10.57
2018-10-21T16:23:17.666Z,9.80
2018-10-21T16:25:47.685Z,9.33
2018-10-21T16:28:17.799Z,9.20
2018-10-21T16:30:47.578Z,9.10
2018-10-21T16:33:18.251Z,10.07
2018-10-21T16:35:48.295Z,10.63
2018-10-21T16:38:18.150Z,10.30
2018-10-21T16:40:47.980Z,9.40
2018-10-21T16:43:17.837Z,10.10
2018-10-21T16:45:47.692Z,10.10
2018-10-21T16:48:17.698Z,10.13
2018-10-21T16:50:47.533Z,9.23
2018-10-21T16:53:17.470Z,8.97
2018-10-21T16:55:47.360Z,8.73
2018-10-21T16:58:17.316Z,10.00
2018-10-21T17:00:47.207Z,10.50
2018-10-21T17:03:17.110Z,9.10
2018-10-21T17:05:47.004Z,9.73
2018-10-21T17:08:16.785Z,9.83
2018-10-21T17:10:46.734Z,9.93
2018-10-21T17:13:16.734Z,9.80
2018-10-21T17:15:46.483Z,9.53
2018-10-21T17:18:16.379Z,9.33
2018-10-21T17:20:46.384Z,9.67
2018-10-21T17:23:16.183Z,9.07
2018-10-21T17:25:46.005Z,9.53
2018-10-21T17:28:15.882Z,10.07
2018-10-21T17:30:45.793Z,9.53
2018-10-21T17:33:15.676Z,10.87
2018-10-21T17:35:45.515Z,10.50
2018-10-21T17:38:16.361Z,11.07
2018-10-21T17:40:46.305Z,10.47
2018-10-21T17:43:16.323Z,11.63
2018-10-21T17:45:46.028Z,11.23
2018-10-21T17:48:15.862Z,10.30
2018-10-21T17:50:45.843Z,11.20
2018-10-21T17:53:15.752Z,10.77
2018-10-21T17:55:45.620Z,11.40
2018-10-21T17:58:15.492Z,10.93
2018-10-21T18:00:45.220Z,10.33
2018-10-21T18:03:15.572Z,11.30
2018-10-21T18:05:45.509Z,10.73
2018-10-21T18:08:15.430Z,11.70
2018-10-21T18:10:45.506Z,10.90
2018-10-21T18:13:15.387Z,10.73
2018-10-21T18:15:45.417Z,12.30
2018-10-21T18:18:15.388Z,15.33
2018-10-21T18:20:45.411Z,13.53
2018-10-21T18:23:15.271Z,12.17
2018-10-21T18:25:45.140Z,11.70
2018-10-21T18:28:15.124Z,10.57
2018-10-21T18:30:44.999Z,10.33
2018-10-21T18:33:14.891Z,10.20
2018-10-21T18:35:44.713Z,10.10
2018-10-21T18:38:14.699Z,10.60
2018-10-21T18:40:44.686Z,10.20
2018-10-21T18:43:14.540Z,9.97
2018-10-21T18:45:44.589Z,10.07
2018-10-21T18:48:14.771Z,11.13
2018-10-21T18:50:44.752Z,11.13
2018-10-21T18:53:14.915Z,11.20
2018-10-21T18:55:44.856Z,11.15
2018-10-21T18:58:15.067Z,10.50
2018-10-21T19:00:44.965Z,10.27
2018-10-21T19:03:15.541Z,11.30
2018-10-21T19:05:45.590Z,11.17
2018-10-21T19:08:15.458Z,11.40
2018-10-21T19:10:45.306Z,10.57
2018-10-21T19:13:15.285Z,12.47
2018-10-21T19:15:45.126Z,11.60
2018-10-21T19:18:14.950Z,11.57
2018-10-21T19:20:45.006Z,12.23
2018-10-21T19:23:15.365Z,11.13
2018-10-21T19:25:45.241Z,11.17
2018-10-21T19:28:15.186Z,11.23
2018-10-21T19:30:45.151Z,10.80
2018-10-21T19:33:15.077Z,11.13
2018-10-21T19:35:45.460Z,11.10
2018-10-21T19:38:15.429Z,11.10
2018-10-21T19:40:45.515Z,11.00
2018-10-21T19:43:15.481Z,10.77
2018-10-21T19:45:46.259Z,11.50
2018-10-21T19:48:16.183Z,11.87
2018-10-21T19:50:46.559Z,11.20
2018-10-21T19:53:16.428Z,11.37
2018-10-21T19:55:46.659Z,11.13
2018-10-21T19:58:16.757Z,11.00
2018-10-21T20:00:46.882Z,10.83
2018-10-21T20:03:16.689Z,9.97
2018-10-21T20:05:46.820Z,10.93
2018-10-21T20:08:16.688Z,10.00
2018-10-21T20:10:47.026Z,9.80
2018-10-21T20:13:16.945Z,10.20
2018-10-21T20:15:47.209Z,9.97
2018-10-21T20:18:17.423Z,10.40
2018-10-21T20:20:47.340Z,10.03
2018-10-21T20:23:17.517Z,11.03
2018-10-21T20:25:47.655Z,10.13
2018-10-21T20:28:17.468Z,10.87
2018-10-21T20:30:47.574Z,10.83
2018-10-21T20:33:17.467Z,9.87
2018-10-21T20:35:47.505Z,11.40
2018-10-21T20:38:17.325Z,10.63
2018-10-21T20:40:47.466Z,11.10
2018-10-21T20:43:17.467Z,11.63
2018-10-21T20:45:54.099Z,11.47
2018-10-21T20:48:24.737Z,11.13
2018-10-21T20:50:54.649Z,11.43
2018-10-21T20:53:24.574Z,11.03
2018-10-21T20:55:54.341Z,12.47
2018-10-21T20:58:24.240Z,12.57
2018-10-21T21:00:54.061Z,13.20
2018-10-21T21:03:23.838Z,12.97
2018-10-21T21:05:53.687Z,13.27
2018-10-21T21:08:23.598Z,13.87
2018-10-21T21:10:53.436Z,14.20
2018-10-21T21:13:23.206Z,13.53
2018-10-21T21:15:52.938Z,15.77
2018-10-21T21:18:22.793Z,14.33
2018-10-21T21:20:53.026Z,15.83
2018-10-21T21:23:22.714Z,15.67
2018-10-21T21:25:52.692Z,15.20
2018-10-21T21:28:22.386Z,23.90
2018-10-21T21:30:52.540Z,41.48
2018-10-21T21:33:22.436Z,18.10
2018-10-21T21:35:52.540Z,19.10
2018-10-21T21:38:22.312Z,19.03
2018-10-21T21:40:52.473Z,17.87
2018-10-21T21:43:22.372Z,16.07
2018-10-21T21:45:52.591Z,17.23
2018-10-21T21:48:22.406Z,16.90
2018-10-21T21:50:52.539Z,18.00
2018-10-21T21:53:22.254Z,18.50
2018-10-21T21:55:52.295Z,18.10
2018-10-21T21:58:22.073Z,17.13
2018-10-21T22:00:52.292Z,19.03
2018-10-21T22:03:22.279Z,19.47
2018-10-21T22:05:52.421Z,19.17
2018-10-21T22:08:23.255Z,19.50
2018-10-21T22:10:53.339Z,19.00
2018-10-21T22:13:23.177Z,21.10
2018-10-21T22:15:53.690Z,20.57
2018-10-21T22:18:23.728Z,20.87
2018-10-21T22:20:53.972Z,21.23
2018-10-21T22:23:23.955Z,19.20
2018-10-21T22:25:54.000Z,19.67
2018-10-21T22:28:23.806Z,19.53
2018-10-21T22:30:53.584Z,19.67
2018-10-21T22:33:23.336Z,18.87
2018-10-21T22:35:53.529Z,19.03
2018-10-21T22:38:23.266Z,19.03
2018-10-21T22:40:53.054Z,19.00
2018-10-21T22:43:22.809Z,17.57
2018-10-21T22:45:52.649Z,17.67
2018-10-21T22:48:22.492Z,18.10
2018-10-21T22:50:52.419Z,17.90
2018-10-21T22:53:22.114Z,17.40
2018-10-21T22:55:51.870Z,17.37
2018-10-21T22:58:21.573Z,17.70
2018-10-21T23:00:51.290Z,16.50
2018-10-21T23:03:21.117Z,17.07
2018-10-21T23:05:50.899Z,17.13
2018-10-21T23:08:20.727Z,15.90
2018-10-21T23:10:50.509Z,16.20
2018-10-21T23:13:20.247Z,17.50
2018-10-21T23:15:50.004Z,17.13
2018-10-21T23:18:19.751Z,18.00
2018-10-21T23:20:49.463Z,15.73
2018-10-21T23:23:19.231Z,16.17
2018-10-21T23:25:48.886Z,16.60
2018-10-21T23:28:18.791Z,17.60
2018-10-21T23:30:48.643Z,18.10
2018-10-21T23:33:18.480Z,17.60
2018-10-21T23:35:48.227Z,18.27
2018-10-21T23:38:18.013Z,18.30
2018-10-21T23:40:47.757Z,19.17
2018-10-21T23:43:17.686Z,17.67
2018-10-21T23:45:54.122Z,18.80
2018-10-21T23:48:23.975Z,18.50
2018-10-21T23:50:53.760Z,19.50
2018-10-21T23:53:23.470Z,18.37
2018-10-21T23:55:53.170Z,19.30
2018-10-21T23:58:22.965Z,19.63
